sensor_id;sensor_type;location;lat;lon;timestamp;pressure;altitude;pressure_sealevel;temperature;humidity
19843;BME280;10082;51.038;6.992;2023-06-24T00:00:42;-17616.84;;;-144.33;100.00
19843;BME280;10082;51.038;6.992;2023-06-24T00:03:09;-17616.84;;;-144.33;100.00
19843;BME280;10082;51.038;6.992;2023-06-24T00:05:37;-17616.84;;;-144.33;100.00
19843;BME280;10082;51.038;6.992;2023-06-24T00:08:05;-17616.84;;;-144.33;100.00
19843;BME280;10082;51.038;6.992;2023-06-24T00:10:34;-17616.84;;;-144.33;100.00
19843;BME280;10082;51.038;6.992;2023-06-24T00:13:01;-17616.84;;;-144.33;100.00
19843;BME280;10082;51.038;6.992;2023-06-24T00:15:29;-17616.84;;;-144.33;100.00
19843;BME280;10082;51.038;6.992;2023-06-24T00:17:56;-17616.84;;;-144.33;100.00
19843;BME280;10082;51.038;6.992;2023-06-24T00:20:34;-17616.84;;;-144.33;100.00
19843;BME280;10082;51.038;6.992;2023-06-24T00:23:01;-17616.84;;;-144.33;100.00
19843;BME280;10082;51.038;6.992;2023-06-24T00:25:29;-17616.84;;;-144.33;100.00
19843;BME280;10082;51.038;6.992;2023-06-24T00:27:57;-17616.84;;;-144.33;100.00
19843;BME280;10082;51.038;6.992;2023-06-24T00:30:25;-17616.84;;;-144.33;100.00
19843;BME280;10082;51.038;6.992;2023-06-24T00:32:55;-17616.84;;;-144.33;100.00
19843;BME280;10082;51.038;6.992;2023-06-24T00:35:23;-17616.84;;;-144.33;100.00
19843;BME280;10082;51.038;6.992;2023-06-24T00:37:51;-17616.84;;;-144.33;100.00
19843;BME280;10082;51.038;6.992;2023-06-24T00:40:23;-17616.84;;;-144.33;100.00
19843;BME280;10082;51.038;6.992;2023-06-24T00:42:51;-17616.84;;;-144.33;100.00
19843;BME280;10082;51.038;6.992;2023-06-24T00:45:20;-17616.84;;;-144.33;100.00
19843;BME280;10082;51.038;6.992;2023-06-24T00:47:48;-17616.84;;;-144.33;100.00
19843;BME280;10082;51.038;6.992;2023-06-24T00:50:17;-17616.84;;;-144.33;100.00
19843;BME280;10082;51.038;6.992;2023-06-24T00:52:45;-17616.84;;;-144.33;100.00
19843;BME280;10082;51.038;6.992;2023-06-24T00:55:15;-17616.84;;;-144.33;100.00
19843;BME280;10082;51.038;6.992;2023-06-24T00:57:44;-17616.84;;;-144.33;100.00
19843;BME280;10082;51.038;6.992;2023-06-24T01:00:14;-17616.84;;;-144.33;100.00
19843;BME280;10082;51.038;6.992;2023-06-24T01:02:47;-17616.84;;;-144.33;100.00
19843;BME280;10082;51.038;6.992;2023-06-24T01:05:14;-17616.84;;;-144.33;100.00
19843;BME280;10082;51.038;6.992;2023-06-24T01:07:42;-17616.84;;;-144.33;100.00
19843;BME280;10082;51.038;6.992;2023-06-24T01:10:12;-17616.84;;;-144.33;100.00
19843;BME280;10082;51.038;6.992;2023-06-24T01:12:40;-17616.84;;;-144.33;100.00
19843;BME280;10082;51.038;6.992;2023-06-24T01:15:10;-17616.84;;;-144.33;100.00
19843;BME280;10082;51.038;6.992;2023-06-24T01:17:43;-17616.84;;;-144.33;100.00
19843;BME280;10082;51.038;6.992;2023-06-24T01:20:18;-17616.84;;;-144.33;100.00
19843;BME280;10082;51.038;6.992;2023-06-24T01:23:19;-17616.84;;;-144.33;100.00
19843;BME280;10082;51.038;6.992;2023-06-24T01:26:19;-17616.84;;;-144.33;100.00
19843;BME280;10082;51.038;6.992;2023-06-24T01:29:06;-17616.84;;;-144.33;100.00
19843;BME280;10082;51.038;6.992;2023-06-24T01:31:42;-17616.84;;;-144.33;100.00
19843;BME280;10082;51.038;6.992;2023-06-24T01:34:20;-17616.84;;;-144.33;100.00
19843;BME280;10082;51.038;6.992;2023-06-24T01:36:54;-17616.84;;;-144.33;100.00
19843;BME280;10082;51.038;6.992;2023-06-24T01:39:24;-17616.84;;;-144.33;100.00
19843;BME280;10082;51.038;6.992;2023-06-24T01:41:56;-17616.84;;;-144.33;100.00
19843;BME280;10082;51.038;6.992;2023-06-24T01:44:27;-17616.84;;;-144.33;100.00
19843;BME280;10082;51.038;6.992;2023-06-24T01:46:58;-17616.84;;;-144.33;100.00
19843;BME280;10082;51.038;6.992;2023-06-24T01:49:28;-17616.84;;;-144.33;100.00
19843;BME280;10082;51.038;6.992;2023-06-24T01:51:58;-17616.84;;;-144.33;100.00
19843;BME280;10082;51.038;6.992;2023-06-24T01:54:28;-17616.84;;;-144.33;100.00
19843;BME280;10082;51.038;6.992;2023-06-24T01:56:59;-17616.84;;;-144.33;100.00
19843;BME280;10082;51.038;6.992;2023-06-24T01:59:28;-17616.84;;;-144.33;100.00
19843;BME280;10082;51.038;6.992;2023-06-24T02:01:58;-17616.84;;;-144.33;100.00
19843;BME280;10082;51.038;6.992;2023-06-24T02:04:28;-17616.84;;;-144.33;100.00
19843;BME280;10082;51.038;6.992;2023-06-24T02:06:58;-17616.84;;;-144.33;100.00
19843;BME280;10082;51.038;6.992;2023-06-24T02:09:28;-17616.84;;;-144.33;100.00
19843;BME280;10082;51.038;6.992;2023-06-24T02:11:58;-17616.84;;;-144.33;100.00
19843;BME280;10082;51.038;6.992;2023-06-24T02:14:27;-17616.84;;;-144.33;100.00
19843;BME280;10082;51.038;6.992;2023-06-24T02:16:58;-17616.84;;;-144.33;100.00
19843;BME280;10082;51.038;6.992;2023-06-24T02:19:30;-17616.84;;;-144.33;100.00
19843;BME280;10082;51.038;6.992;2023-06-24T02:21:58;-17616.84;;;-144.33;100.00
19843;BME280;10082;51.038;6.992;2023-06-24T02:24:26;-17616.84;;;-144.33;100.00
19843;BME280;10082;51.038;6.992;2023-06-24T02:26:56;-17616.84;;;-144.33;100.00
19843;BME280;10082;51.038;6.992;2023-06-24T02:29:25;-17616.84;;;-144.33;100.00
19843;BME280;10082;51.038;6.992;2023-06-24T02:31:53;-17616.84;;;-144.33;100.00
19843;BME280;10082;51.038;6.992;2023-06-24T02:34:22;-17616.84;;;-144.33;100.00
19843;BME280;10082;51.038;6.992;2023-06-24T02:36:50;-17616.84;;;-144.33;100.00
19843;BME280;10082;51.038;6.992;2023-06-24T02:39:17;-17616.84;;;-144.33;100.00
19843;BME280;10082;51.038;6.992;2023-06-24T02:41:45;-17616.84;;;-144.33;100.00
19843;BME280;10082;51.038;6.992;2023-06-24T02:44:13;-17616.84;;;-144.33;100.00
19843;BME280;10082;51.038;6.992;2023-06-24T02:46:40;-17616.84;;;-144.33;100.00
19843;BME280;10082;51.038;6.992;2023-06-24T02:49:10;-17616.84;;;-144.33;100.00
19843;BME280;10082;51.038;6.992;2023-06-24T02:51:41;-17616.84;;;-144.33;100.00
19843;BME280;10082;51.038;6.992;2023-06-24T02:54:10;-17616.84;;;-144.33;100.00
19843;BME280;10082;51.038;6.992;2023-06-24T02:57:10;-17616.84;;;-144.33;100.00
19843;BME280;10082;51.038;6.992;2023-06-24T03:00:11;-17616.84;;;-144.33;100.00
19843;BME280;10082;51.038;6.992;2023-06-24T03:02:59;-17616.84;;;-144.33;100.00
19843;BME280;10082;51.038;6.992;2023-06-24T03:05:27;-17616.84;;;-144.33;100.00
19843;BME280;10082;51.038;6.992;2023-06-24T03:07:58;-17616.84;;;-144.33;100.00
19843;BME280;10082;51.038;6.992;2023-06-24T03:10:25;-17616.84;;;-144.33;100.00
19843;BME280;10082;51.038;6.992;2023-06-24T03:12:53;-17616.84;;;-144.33;100.00
19843;BME280;10082;51.038;6.992;2023-06-24T03:15:26;-17616.84;;;-144.33;100.00
19843;BME280;10082;51.038;6.992;2023-06-24T03:17:54;-17616.84;;;-144.33;100.00
19843;BME280;10082;51.038;6.992;2023-06-24T03:20:22;-17616.84;;;-144.33;100.00
19843;BME280;10082;51.038;6.992;2023-06-24T03:22:51;-17616.84;;;-144.33;100.00
19843;BME280;10082;51.038;6.992;2023-06-24T03:25:22;-17616.84;;;-144.33;100.00
19843;BME280;10082;51.038;6.992;2023-06-24T03:27:50;-17616.84;;;-144.33;100.00
19843;BME280;10082;51.038;6.992;2023-06-24T03:30:17;-17616.84;;;-144.33;100.00
19843;BME280;10082;51.038;6.992;2023-06-24T03:32:44;-17616.84;;;-144.33;100.00
19843;BME280;10082;51.038;6.992;2023-06-24T03:35:14;-17616.84;;;-144.33;100.00
19843;BME280;10082;51.038;6.992;2023-06-24T03:37:43;-17616.84;;;-144.33;100.00
19843;BME280;10082;51.038;6.992;2023-06-24T03:40:12;-17616.84;;;-144.33;100.00
19843;BME280;10082;51.038;6.992;2023-06-24T03:42:42;-17616.84;;;-144.33;100.00
19843;BME280;10082;51.038;6.992;2023-06-24T03:45:10;-17616.84;;;-144.33;100.00
19843;BME280;10082;51.038;6.992;2023-06-24T03:47:42;-17616.84;;;-144.33;100.00
19843;BME280;10082;51.038;6.992;2023-06-24T03:50:10;-17616.84;;;-144.33;100.00
19843;BME280;10082;51.038;6.992;2023-06-24T03:52:37;-17616.84;;;-144.33;100.00
19843;BME280;10082;51.038;6.992;2023-06-24T03:55:06;-17616.84;;;-144.33;100.00
19843;BME280;10082;51.038;6.992;2023-06-24T03:57:33;-17616.84;;;-144.33;100.00
19843;BME280;10082;51.038;6.992;2023-06-24T04:00:03;-17616.84;;;-144.33;100.00
19843;BME280;10082;51.038;6.992;2023-06-24T04:02:38;-17616.84;;;-144.33;100.00
19843;BME280;10082;51.038;6.992;2023-06-24T04:05:07;-17616.84;;;-144.33;100.00
19843;BME280;10082;51.038;6.992;2023-06-24T04:07:35;-17616.84;;;-144.33;100.00
19843;BME280;10082;51.038;6.992;2023-06-24T04:10:04;-17616.84;;;-144.33;100.00
19843;BME280;10082;51.038;6.992;2023-06-24T04:12:34;-17616.84;;;-144.33;100.00
19843;BME280;10082;51.038;6.992;2023-06-24T04:15:07;-17616.84;;;-144.33;100.00
19843;BME280;10082;51.038;6.992;2023-06-24T04:17:34;-17616.84;;;-144.33;100.00
19843;BME280;10082;51.038;6.992;2023-06-24T04:20:02;-17616.84;;;-144.33;100.00
19843;BME280;10082;51.038;6.992;2023-06-24T04:22:31;-17616.84;;;-144.33;100.00
19843;BME280;10082;51.038;6.992;2023-06-24T04:24:59;-17616.84;;;-144.33;100.00
19843;BME280;10082;51.038;6.992;2023-06-24T04:27:26;-17616.84;;;-144.33;100.00
19843;BME280;10082;51.038;6.992;2023-06-24T04:29:53;-17616.84;;;-144.33;100.00
19843;BME280;10082;51.038;6.992;2023-06-24T04:32:22;-17616.84;;;-144.33;100.00
19843;BME280;10082;51.038;6.992;2023-06-24T04:34:50;-17616.84;;;-144.33;100.00
19843;BME280;10082;51.038;6.992;2023-06-24T04:37:17;-17616.84;;;-144.33;100.00
19843;BME280;10082;51.038;6.992;2023-06-24T04:39:47;-17616.84;;;-144.33;100.00
19843;BME280;10082;51.038;6.992;2023-06-24T04:42:14;-17616.84;;;-144.33;100.00
19843;BME280;10082;51.038;6.992;2023-06-24T04:44:42;-17616.84;;;-144.33;100.00
19843;BME280;10082;51.038;6.992;2023-06-24T04:47:09;-17616.84;;;-144.33;100.00
19843;BME280;10082;51.038;6.992;2023-06-24T04:49:40;-17616.84;;;-144.33;100.00
19843;BME280;10082;51.038;6.992;2023-06-24T04:52:08;-17616.84;;;-144.33;100.00
19843;BME280;10082;51.038;6.992;2023-06-24T04:54:36;-17616.84;;;-144.33;100.00
19843;BME280;10082;51.038;6.992;2023-06-24T04:57:08;-17616.84;;;-144.33;100.00
19843;BME280;10082;51.038;6.992;2023-06-24T04:59:38;-17616.84;;;-144.33;100.00
19843;BME280;10082;51.038;6.992;2023-06-24T05:02:06;-17616.84;;;-144.33;100.00
19843;BME280;10082;51.038;6.992;2023-06-24T05:04:33;-17616.84;;;-144.33;100.00
19843;BME280;10082;51.038;6.992;2023-06-24T05:07:03;-17616.84;;;-144.33;100.00
19843;BME280;10082;51.038;6.992;2023-06-24T05:09:32;-17616.84;;;-144.33;100.00
19843;BME280;10082;51.038;6.992;2023-06-24T05:12:03;-17616.84;;;-144.33;100.00
19843;BME280;10082;51.038;6.992;2023-06-24T05:14:31;-17366.06;;;-144.33;100.00
19843;BME280;10082;51.038;6.992;2023-06-24T05:16:58;-16119.16;;;-144.33;100.00
19843;BME280;10082;51.038;6.992;2023-06-24T05:19:26;-13873.69;;;-144.33;100.00
19843;BME280;10082;51.038;6.992;2023-06-24T05:21:53;-11876.59;;;-144.33;100.00
19843;BME280;10082;51.038;6.992;2023-06-24T05:24:22;-10128.28;;;-144.33;100.00
19843;BME280;10082;51.038;6.992;2023-06-24T05:26:52;-7879.31;;;-144.33;100.00
19843;BME280;10082;51.038;6.992;2023-06-24T05:29:20;-5378.88;;;-144.33;100.00
19843;BME280;10082;51.038;6.992;2023-06-24T05:31:47;-3627.63;;;-144.33;100.00
19843;BME280;10082;51.038;6.992;2023-06-24T05:34:15;-3627.63;;;-144.33;100.00
19843;BME280;10082;51.038;6.992;2023-06-24T05:36:43;-2376.22;;;-144.33;100.00
19843;BME280;10082;51.038;6.992;2023-06-24T05:39:10;-1124.44;;;-144.33;100.00
19843;BME280;10082;51.038;6.992;2023-06-24T05:41:39;378.28;;;-144.33;100.00
19843;BME280;10082;51.038;6.992;2023-06-24T05:44:10;1630.97;;;-144.33;100.00
19843;BME280;10082;51.038;6.992;2023-06-24T05:46:38;2633.41;;;-144.33;100.00
19843;BME280;10082;51.038;6.992;2023-06-24T05:49:06;2633.41;;;-144.33;100.00
19843;BME280;10082;51.038;6.992;2023-06-24T05:51:34;3385.41;;;-144.33;100.00
19843;BME280;10082;51.038;6.992;2023-06-24T05:54:01;4137.56;;;-144.33;100.00
19843;BME280;10082;51.038;6.992;2023-06-24T05:56:31;5391.50;;;-144.33;100.00
19843;BME280;10082;51.038;6.992;2023-06-24T05:59:07;7649.56;;;-144.33;100.00
19843;BME280;10082;51.038;6.992;2023-06-24T06:01:37;10160.09;;;-144.33;100.00
19843;BME280;10082;51.038;6.992;2023-06-24T06:04:07;12169.66;;;-144.33;100.00
19843;BME280;10082;51.038;6.992;2023-06-24T06:06:37;13426.19;;;-144.33;100.00
19843;BME280;10082;51.038;6.992;2023-06-24T06:09:05;15186.00;;;-144.33;100.00
19843;BME280;10082;51.038;6.992;2023-06-24T06:11:33;17198.19;;;-144.33;100.00
19843;BME280;10082;51.038;6.992;2023-06-24T06:14:01;19714.91;;;-144.33;100.00
19843;BME280;10082;51.038;6.992;2023-06-24T06:16:31;23745.00;;;-144.33;100.00
19843;BME280;10082;51.038;6.992;2023-06-24T06:18:58;22989.03;;;-144.33;100.00
19843;BME280;10082;51.038;6.992;2023-06-24T06:21:29;23997.03;;;-144.33;100.00
19843;BME280;10082;51.038;6.992;2023-06-24T06:23:59;25005.28;;;-144.33;100.00
19843;BME280;10082;51.038;6.992;2023-06-24T06:26:27;24753.19;;;-144.33;100.00
19843;BME280;10082;51.038;6.992;2023-06-24T06:28:54;22989.03;;;-144.33;100.00
19843;BME280;10082;51.038;6.992;2023-06-24T06:31:24;22989.03;;;-144.33;100.00
19843;BME280;10082;51.038;6.992;2023-06-24T06:33:54;25761.63;;;-144.33;100.00
19843;BME280;10082;51.038;6.992;2023-06-24T06:36:23;28788.50;;;-144.33;100.00
19843;BME280;10082;51.038;6.992;2023-06-24T06:38:50;37377.41;;;-144.33;100.00
19843;BME280;10082;51.038;6.992;2023-06-24T06:41:19;50042.34;;;-144.33;100.00
19843;BME280;10082;51.038;6.992;2023-06-24T06:43:49;64275.41;;;-144.33;100.00
19843;BME280;10082;51.038;6.992;2023-06-24T06:46:17;73707.41;;;-144.33;100.00
19843;BME280;10082;51.038;6.992;2023-06-24T06:48:45;79070.59;;;-144.33;100.00
19843;BME280;10082;51.038;6.992;2023-06-24T06:51:14;82138.50;;;-144.33;100.00
19843;BME280;10082;51.038;6.992;2023-06-24T06:53:41;86744.78;;;-144.33;100.00
19843;BME280;10082;51.038;6.992;2023-06-24T06:56:08;99053.97;;;-144.33;100.00
19843;BME280;10082;51.038;6.992;2023-06-24T06:58:35;95973.16;;;-144.33;100.00
19843;BME280;10082;51.038;6.992;2023-06-24T07:01:04;100081.41;;;-144.33;100.00
19843;BME280;10082;51.038;6.992;2023-06-24T07:03:33;100595.25;;;-144.33;100.00
19843;BME280;10082;51.038;6.992;2023-06-24T07:06:00;97770.00;;;-144.33;100.00
19843;BME280;10082;51.038;6.992;2023-06-24T07:08:29;67841.66;;;-144.33;100.00
19843;BME280;10082;51.038;6.992;2023-06-24T07:10:57;64530.03;;;-144.33;100.00
19843;BME280;10082;51.038;6.992;2023-06-24T07:13:25;51311.09;;;-144.33;100.00
19843;BME280;10082;51.038;6.992;2023-06-24T07:15:52;46745.56;;;-144.33;100.00
19843;BME280;10082;51.038;6.992;2023-06-24T07:18:19;58677.75;;;-144.33;100.00
19843;BME280;10082;51.038;6.992;2023-06-24T07:20:46;91612.69;;;-144.33;100.00
19843;BME280;10082;51.038;6.992;2023-06-24T07:23:14;112171.53;;;-144.33;98.36
19843;BME280;10082;51.038;6.992;2023-06-24T07:25:43;112171.53;;;-144.33;97.09
19843;BME280;10082;51.038;6.992;2023-06-24T07:28:11;112171.53;;;-144.33;95.00
19843;BME280;10082;51.038;6.992;2023-06-24T07:30:40;112171.53;;;-144.33;90.48
19843;BME280;10082;51.038;6.992;2023-06-24T07:33:07;112171.53;;;-144.33;88.06
19843;BME280;10082;51.038;6.992;2023-06-24T07:35:34;112171.53;;;-144.33;85.88
19843;BME280;10082;51.038;6.992;2023-06-24T07:38:02;112171.53;;;-144.33;86.65
19843;BME280;10082;51.038;6.992;2023-06-24T07:40:29;112171.53;;;-144.33;96.05
19843;BME280;10082;51.038;6.992;2023-06-24T07:42:58;112171.53;;;-144.33;97.58
19843;BME280;10082;51.038;6.992;2023-06-24T07:45:25;112171.53;;;-144.33;86.15
19843;BME280;10082;51.038;6.992;2023-06-24T07:47:58;112171.53;;;-144.33;83.97
19843;BME280;10082;51.038;6.992;2023-06-24T07:50:25;112171.53;;;-144.33;76.67
19843;BME280;10082;51.038;6.992;2023-06-24T07:52:54;112171.53;;;-144.33;72.26
19843;BME280;10082;51.038;6.992;2023-06-24T07:55:22;112171.53;;;-144.33;68.13
19843;BME280;10082;51.038;6.992;2023-06-24T07:57:49;112171.53;;;-144.33;71.47
19843;BME280;10082;51.038;6.992;2023-06-24T08:00:18;112171.53;;;-144.33;74.35
19843;BME280;10082;51.038;6.992;2023-06-24T08:02:45;112171.53;;;-144.33;70.75
19843;BME280;10082;51.038;6.992;2023-06-24T08:05:12;112171.53;;;-144.33;69.42
19843;BME280;10082;51.038;6.992;2023-06-24T08:07:39;112171.53;;;-144.33;70.60
19843;BME280;10082;51.038;6.992;2023-06-24T08:10:08;112171.53;;;-144.33;73.03
19843;BME280;10082;51.038;6.992;2023-06-24T08:12:37;112171.53;;;-144.33;74.50
19843;BME280;10082;51.038;6.992;2023-06-24T08:15:05;112171.53;;;-144.33;71.29
19843;BME280;10082;51.038;6.992;2023-06-24T08:17:35;112171.53;;;-144.33;69.25
19843;BME280;10082;51.038;6.992;2023-06-24T08:20:03;112171.53;;;-144.33;65.99
19843;BME280;10082;51.038;6.992;2023-06-24T08:22:30;112171.53;;;-144.33;59.21
19843;BME280;10082;51.038;6.992;2023-06-24T08:24:58;112171.53;;;-144.33;57.13
19843;BME280;10082;51.038;6.992;2023-06-24T08:27:25;112171.53;;;-144.33;53.74
19843;BME280;10082;51.038;6.992;2023-06-24T08:29:52;112171.53;;;-144.33;52.87
19843;BME280;10082;51.038;6.992;2023-06-24T08:32:20;112171.53;;;-144.33;54.76
19843;BME280;10082;51.038;6.992;2023-06-24T08:34:49;112171.53;;;-144.33;57.16
19843;BME280;10082;51.038;6.992;2023-06-24T08:37:16;112171.53;;;-144.33;59.44
19843;BME280;10082;51.038;6.992;2023-06-24T08:39:43;112171.53;;;-144.33;66.33
19843;BME280;10082;51.038;6.992;2023-06-24T08:42:10;112171.53;;;-144.33;62.97
19843;BME280;10082;51.038;6.992;2023-06-24T08:44:37;112171.53;;;-144.33;61.00
19843;BME280;10082;51.038;6.992;2023-06-24T08:47:05;112171.53;;;-144.33;60.09
19843;BME280;10082;51.038;6.992;2023-06-24T08:49:34;112171.53;;;-144.33;57.46
19843;BME280;10082;51.038;6.992;2023-06-24T08:52:11;112171.53;;;-144.33;60.13
19843;BME280;10082;51.038;6.992;2023-06-24T08:54:41;112171.53;;;-144.33;58.12
19843;BME280;10082;51.038;6.992;2023-06-24T08:57:08;112171.53;;;-144.33;61.30
19843;BME280;10082;51.038;6.992;2023-06-24T08:59:41;112171.53;;;-144.33;60.74
19843;BME280;10082;51.038;6.992;2023-06-24T09:02:08;112171.53;;;-144.33;59.33
19843;BME280;10082;51.038;6.992;2023-06-24T09:04:36;112171.53;;;-144.33;58.63
19843;BME280;10082;51.038;6.992;2023-06-24T09:07:03;112171.53;;;-144.33;56.96
19843;BME280;10082;51.038;6.992;2023-06-24T09:09:32;112171.53;;;-144.33;59.30
19843;BME280;10082;51.038;6.992;2023-06-24T09:12:00;112171.53;;;-144.33;56.02
19843;BME280;10082;51.038;6.992;2023-06-24T09:14:29;112171.53;;;-144.33;59.85
19843;BME280;10082;51.038;6.992;2023-06-24T09:16:59;112171.53;;;-144.33;58.94
19843;BME280;10082;51.038;6.992;2023-06-24T09:19:28;112171.53;;;-144.33;60.01
19843;BME280;10082;51.038;6.992;2023-06-24T09:22:01;112171.53;;;-144.33;52.41
19843;BME280;10082;51.038;6.992;2023-06-24T09:24:31;112171.53;;;-144.33;55.22
19843;BME280;10082;51.038;6.992;2023-06-24T09:26:59;112171.53;;;-144.33;51.16
19843;BME280;10082;51.038;6.992;2023-06-24T09:29:27;112171.53;;;-144.33;47.59
19843;BME280;10082;51.038;6.992;2023-06-24T09:31:54;112171.53;;;-144.33;52.55
19843;BME280;10082;51.038;6.992;2023-06-24T09:34:24;112171.53;;;-144.33;53.38
19843;BME280;10082;51.038;6.992;2023-06-24T09:36:52;112171.53;;;-144.33;53.35
19843;BME280;10082;51.038;6.992;2023-06-24T09:39:20;112171.53;;;-144.33;52.50
19843;BME280;10082;51.038;6.992;2023-06-24T09:41:55;112171.53;;;-144.33;46.48
19843;BME280;10082;51.038;6.992;2023-06-24T09:44:23;112171.53;;;-144.33;42.80
19843;BME280;10082;51.038;6.992;2023-06-24T09:46:51;112171.53;;;-144.33;48.05
19843;BME280;10082;51.038;6.992;2023-06-24T09:49:19;112171.53;;;-144.33;53.13
19843;BME280;10082;51.038;6.992;2023-06-24T09:51:47;112171.53;;;-144.33;53.77
19843;BME280;10082;51.038;6.992;2023-06-24T09:54:15;112171.53;;;-144.33;50.14
19843;BME280;10082;51.038;6.992;2023-06-24T09:56:45;112171.53;;;-144.33;49.01
19843;BME280;10082;51.038;6.992;2023-06-24T09:59:18;112171.53;;;-144.33;47.76
19843;BME280;10082;51.038;6.992;2023-06-24T10:01:47;112171.53;;;-144.33;47.60
19843;BME280;10082;51.038;6.992;2023-06-24T10:04:16;112171.53;;;-144.33;49.60
19843;BME280;10082;51.038;6.992;2023-06-24T10:06:43;112171.53;;;-144.33;49.84
19843;BME280;10082;51.038;6.992;2023-06-24T10:09:10;112171.53;;;-144.33;46.92
19843;BME280;10082;51.038;6.992;2023-06-24T10:11:39;112171.53;;;-144.33;47.34
19843;BME280;10082;51.038;6.992;2023-06-24T10:14:06;112171.53;;;-144.33;46.09
19843;BME280;10082;51.038;6.992;2023-06-24T10:16:35;112171.53;;;-144.33;47.55
19843;BME280;10082;51.038;6.992;2023-06-24T10:19:03;112171.53;;;-144.33;43.14
19843;BME280;10082;51.038;6.992;2023-06-24T10:21:47;112171.53;;;-144.33;39.20
19843;BME280;10082;51.038;6.992;2023-06-24T10:24:28;112171.53;;;-144.33;37.54
19843;BME280;10082;51.038;6.992;2023-06-24T10:27:01;112171.53;;;-144.33;35.53
19843;BME280;10082;51.038;6.992;2023-06-24T10:29:33;112171.53;;;-144.33;39.05
19843;BME280;10082;51.038;6.992;2023-06-24T10:32:08;112171.53;;;-144.33;38.89
19843;BME280;10082;51.038;6.992;2023-06-24T10:34:40;112171.53;;;-144.33;37.35
19843;BME280;10082;51.038;6.992;2023-06-24T10:37:09;112171.53;;;-144.33;35.84
19843;BME280;10082;51.038;6.992;2023-06-24T10:39:39;112171.53;;;-144.33;34.89
19843;BME280;10082;51.038;6.992;2023-06-24T10:42:26;112171.53;;;-144.33;33.67
19843;BME280;10082;51.038;6.992;2023-06-24T10:44:55;112171.53;;;-144.33;33.52
19843;BME280;10082;51.038;6.992;2023-06-24T10:47:24;112171.53;;;-144.33;34.07
19843;BME280;10082;51.038;6.992;2023-06-24T10:49:52;112171.53;;;-144.33;36.20
19843;BME280;10082;51.038;6.992;2023-06-24T10:52:20;112171.53;;;-144.33;36.83
19843;BME280;10082;51.038;6.992;2023-06-24T10:54:48;112171.53;;;-144.33;37.02
19843;BME280;10082;51.038;6.992;2023-06-24T10:57:20;112171.53;;;-144.33;36.09
19843;BME280;10082;51.038;6.992;2023-06-24T10:59:48;112171.53;;;-144.33;33.87
19843;BME280;10082;51.038;6.992;2023-06-24T11:02:17;112171.53;;;-144.33;33.67
19843;BME280;10082;51.038;6.992;2023-06-24T11:04:49;112171.53;;;-144.33;34.50
19843;BME280;10082;51.038;6.992;2023-06-24T11:07:18;112171.53;;;-144.33;35.04
19843;BME280;10082;51.038;6.992;2023-06-24T11:09:49;112171.53;;;-144.33;32.89
19843;BME280;10082;51.038;6.992;2023-06-24T11:12:17;112171.53;;;-144.33;34.79
19843;BME280;10082;51.038;6.992;2023-06-24T11:14:44;112171.53;;;-144.33;34.37
19843;BME280;10082;51.038;6.992;2023-06-24T11:17:11;112171.53;;;-144.33;33.44
19843;BME280;10082;51.038;6.992;2023-06-24T11:19:38;112171.53;;;-144.33;32.91
19843;BME280;10082;51.038;6.992;2023-06-24T11:22:07;112171.53;;;-144.33;33.40
19843;BME280;10082;51.038;6.992;2023-06-24T11:24:35;112171.53;;;-144.33;32.64
19843;BME280;10082;51.038;6.992;2023-06-24T11:27:06;112171.53;;;-144.33;31.53
19843;BME280;10082;51.038;6.992;2023-06-24T11:29:33;112171.53;;;-144.33;30.04
19843;BME280;10082;51.038;6.992;2023-06-24T11:32:01;112171.53;;;-144.33;31.03
19843;BME280;10082;51.038;6.992;2023-06-24T11:34:29;112171.53;;;-144.33;31.47
19843;BME280;10082;51.038;6.992;2023-06-24T11:36:56;112171.53;;;-144.33;29.20
19843;BME280;10082;51.038;6.992;2023-06-24T11:39:27;112171.53;;;-144.33;29.09
19843;BME280;10082;51.038;6.992;2023-06-24T11:41:57;112171.53;;;-144.33;31.17
19843;BME280;10082;51.038;6.992;2023-06-24T11:44:24;112171.53;;;-144.33;31.24
19843;BME280;10082;51.038;6.992;2023-06-24T11:46:51;112171.53;;;-144.33;30.78
19843;BME280;10082;51.038;6.992;2023-06-24T11:49:19;112171.53;;;-144.33;29.50
19843;BME280;10082;51.038;6.992;2023-06-24T11:51:48;112171.53;;;-144.33;30.05
19843;BME280;10082;51.038;6.992;2023-06-24T11:54:17;112171.53;;;-144.33;29.56
19843;BME280;10082;51.038;6.992;2023-06-24T11:56:51;112171.53;;;-144.33;29.97
19843;BME280;10082;51.038;6.992;2023-06-24T11:59:20;112171.53;;;-144.33;30.50
19843;BME280;10082;51.038;6.992;2023-06-24T12:01:54;112171.53;;;-144.33;30.33
19843;BME280;10082;51.038;6.992;2023-06-24T12:04:27;112171.53;;;-144.33;31.63
19843;BME280;10082;51.038;6.992;2023-06-24T12:06:54;112171.53;;;-144.33;31.50
19843;BME280;10082;51.038;6.992;2023-06-24T12:09:24;112171.53;;;-144.33;32.89
19843;BME280;10082;51.038;6.992;2023-06-24T12:11:53;112171.53;;;-144.33;31.73
19843;BME280;10082;51.038;6.992;2023-06-24T12:14:20;112171.53;;;-144.33;32.80
19843;BME280;10082;51.038;6.992;2023-06-24T12:16:50;112171.53;;;-144.33;32.10
19843;BME280;10082;51.038;6.992;2023-06-24T12:19:17;112171.53;;;-144.33;30.53
19843;BME280;10082;51.038;6.992;2023-06-24T12:21:46;112171.53;;;-144.33;29.48
19843;BME280;10082;51.038;6.992;2023-06-24T12:24:12;112171.53;;;-144.33;30.43
19843;BME280;10082;51.038;6.992;2023-06-24T12:26:39;112171.53;;;-144.33;30.64
19843;BME280;10082;51.038;6.992;2023-06-24T12:29:08;112171.53;;;-144.33;31.66
19843;BME280;10082;51.038;6.992;2023-06-24T12:31:35;112171.53;;;-144.33;32.00
19843;BME280;10082;51.038;6.992;2023-06-24T12:34:02;112171.53;;;-144.33;30.74
19843;BME280;10082;51.038;6.992;2023-06-24T12:36:30;112171.53;;;-144.33;32.76